createdAt,value
2018-07-10T00:04:02.191Z,5.73
2018-07-10T00:07:24.988Z,5.37
2018-07-10T00:10:09.845Z,5.50
2018-07-10T00:12:40.481Z,5.37
2018-07-10T00:15:11.973Z,5.57
2018-07-10T00:17:41.305Z,5.33
2018-07-10T00:20:15.272Z,5.80
2018-07-10T00:22:45.701Z,5.90
2018-07-10T00:25:24.389Z,5.47
2018-07-10T00:27:59.528Z,5.37
2018-07-10T00:30:29.029Z,5.77
2018-07-10T00:33:03.040Z,5.67
2018-07-10T00:35:32.562Z,6.27
2018-07-10T00:38:12.953Z,6.30
2018-07-10T00:40:48.432Z,5.90
2018-07-10T00:43:17.616Z,5.80
2018-07-10T00:45:54.760Z,5.47
2018-07-10T00:48:24.341Z,5.40
2018-07-10T00:50:54.642Z,5.40
2018-07-10T00:53:30.559Z,5.70
2018-07-10T00:56:00.934Z,5.43
2018-07-10T00:58:31.275Z,5.23
2018-07-10T01:01:00.412Z,5.40
2018-07-10T01:03:30.128Z,5.10
2018-07-10T01:06:00.228Z,5.80
2018-07-10T01:08:31.862Z,5.10
2018-07-10T01:11:04.725Z,6.80
2018-07-10T01:13:36.093Z,10.20
2018-07-10T01:16:10.892Z,9.77
2018-07-10T01:18:46.685Z,8.93
2018-07-10T01:21:22.232Z,7.40
2018-07-10T01:23:59.487Z,7.13
2018-07-10T01:26:34.284Z,6.27
2018-07-10T01:30:08.668Z,6.43
2018-07-10T01:32:45.777Z,5.77
2018-07-10T01:35:17.631Z,6.10
2018-07-10T01:37:52.579Z,5.57
2018-07-10T01:40:23.842Z,5.20
2018-07-10T01:42:54.419Z,5.73
2018-07-10T01:45:24.412Z,4.87
2018-07-10T01:47:53.294Z,5.70
2018-07-10T01:50:28.504Z,5.10
2018-07-10T01:53:03.840Z,5.43
2018-07-10T01:55:40.078Z,4.67
2018-07-10T01:58:10.998Z,5.07
2018-07-10T02:00:44.616Z,5.40
2018-07-10T02:03:18.755Z,5.37
2018-07-10T02:05:49.677Z,5.30
2018-07-10T02:08:19.779Z,5.93
2018-07-10T02:10:51.450Z,6.30
2018-07-10T02:13:21.410Z,6.13
2018-07-10T02:15:52.070Z,5.73
2018-07-10T02:18:22.441Z,5.37
2018-07-10T02:21:01.616Z,5.70
2018-07-10T02:23:37.826Z,6.27
2018-07-10T02:26:17.904Z,6.60
2018-07-10T02:28:47.681Z,6.87
2018-07-10T02:31:18.169Z,6.30
2018-07-10T02:33:49.355Z,6.83
2018-07-10T02:36:19.485Z,5.90
2018-07-10T02:38:57.322Z,6.43
2018-07-10T02:41:27.641Z,6.47
2018-07-10T02:44:01.761Z,6.73
2018-07-10T02:46:37.342Z,7.00
2018-07-10T02:49:16.222Z,6.47
2018-07-10T02:51:54.626Z,6.90
2018-07-10T02:54:27.189Z,7.10
2018-07-10T02:57:09.417Z,7.53
2018-07-10T02:59:49.081Z,7.13
2018-07-10T03:02:27.423Z,8.17
2018-07-10T03:05:01.378Z,7.30
2018-07-10T03:07:32.965Z,7.53
2018-07-10T03:10:04.211Z,7.20
2018-07-10T03:12:36.342Z,8.03
2018-07-10T03:15:09.420Z,8.23
2018-07-10T03:17:38.226Z,8.67
2018-07-10T03:20:09.621Z,8.20
2018-07-10T03:22:43.566Z,8.30
2018-07-10T03:25:18.452Z,8.30
2018-07-10T03:27:47.385Z,8.27
2018-07-10T03:30:21.713Z,8.13
2018-07-10T03:32:57.763Z,8.07
2018-07-10T03:35:28.710Z,7.90
2018-07-10T03:38:02.868Z,6.80
2018-07-10T03:40:32.136Z,7.73
2018-07-10T03:43:02.571Z,7.67
2018-07-10T03:45:36.387Z,7.33
2018-07-10T03:48:12.868Z,7.53
2018-07-10T03:50:41.732Z,7.17
2018-07-10T03:53:16.623Z,8.17
2018-07-10T03:55:47.119Z,7.47
2018-07-10T03:58:18.212Z,7.90
2018-07-10T04:00:47.965Z,7.53
2018-07-10T04:03:17.896Z,7.33
2018-07-10T04:05:47.316Z,6.80
2018-07-10T04:08:21.267Z,6.17
2018-07-10T04:10:52.902Z,5.50
2018-07-10T04:13:25.733Z,6.10
2018-07-10T04:16:01.466Z,6.00
2018-07-10T04:18:42.846Z,6.23
2018-07-10T04:21:21.642Z,5.60
2018-07-10T04:23:57.388Z,6.27
2018-07-10T04:26:28.871Z,6.17
2018-07-10T04:29:07.364Z,6.07
2018-07-10T04:31:59.642Z,5.47
2018-07-10T04:34:33.475Z,5.97
2018-07-10T04:37:20.893Z,5.83
2018-07-10T04:39:55.469Z,6.03
2018-07-10T04:42:31.646Z,5.53
2018-07-10T04:45:12.942Z,6.50
2018-07-10T04:47:51.729Z,6.13
2018-07-10T04:50:29.126Z,6.30
2018-07-10T04:53:05.473Z,7.10
2018-07-10T04:55:45.247Z,6.70
2018-07-10T04:58:25.869Z,6.50
2018-07-10T05:01:02.105Z,6.60
2018-07-10T05:03:33.910Z,6.40
2018-07-10T05:06:05.972Z,6.20
2018-07-10T05:08:36.906Z,6.80
2018-07-10T05:11:18.841Z,6.10
2018-07-10T05:13:54.114Z,6.73
2018-07-10T05:16:23.019Z,6.50
2018-07-10T05:18:59.501Z,6.23
2018-07-10T05:21:30.164Z,6.30
2018-07-10T05:24:00.413Z,5.40
2018-07-10T05:26:32.721Z,6.37
2018-07-10T05:29:03.324Z,6.40
2018-07-10T05:31:36.627Z,5.83
2018-07-10T05:34:12.138Z,5.97
2018-07-10T05:36:42.081Z,6.53
2018-07-10T05:39:17.415Z,6.77
2018-07-10T05:41:48.977Z,6.13
2018-07-10T05:44:23.048Z,6.63
2018-07-10T05:46:53.645Z,7.13
2018-07-10T05:49:31.283Z,6.50
2018-07-10T05:52:01.866Z,6.57
2018-07-10T05:54:32.329Z,6.33
2018-07-10T05:57:05.150Z,6.27
2018-07-10T05:59:36.105Z,6.53
2018-07-10T06:02:18.688Z,7.10
2018-07-10T06:04:49.689Z,6.83
2018-07-10T06:07:20.294Z,6.07
2018-07-10T06:09:49.569Z,7.20
2018-07-10T06:12:21.298Z,7.20
2018-07-10T06:14:51.878Z,7.13
2018-07-10T06:17:25.453Z,7.20
2018-07-10T06:19:56.433Z,7.30
2018-07-10T06:22:31.232Z,7.77
2018-07-10T06:25:06.933Z,6.80
2018-07-10T06:28:45.665Z,6.80
2018-07-10T06:31:23.934Z,7.73
2018-07-10T06:34:10.061Z,6.90
2018-07-10T06:36:48.326Z,6.40
2018-07-10T06:39:19.140Z,6.30
2018-07-10T06:42:24.513Z,6.30
2018-07-10T06:44:54.041Z,7.23
2018-07-10T06:47:33.769Z,6.70
2018-07-10T06:50:07.409Z,7.73
2018-07-10T06:52:41.665Z,8.50
2018-07-10T06:55:18.962Z,9.73
2018-07-10T06:57:53.328Z,8.30
2018-07-10T07:00:28.361Z,6.60
2018-07-10T07:02:58.358Z,7.30
2018-07-10T07:05:29.691Z,7.20
2018-07-10T07:07:59.115Z,6.60
2018-07-10T07:10:32.802Z,7.57
2018-07-10T07:13:03.323Z,8.70
2018-07-10T07:15:32.802Z,8.10
2018-07-10T07:18:03.497Z,6.77
2018-07-10T07:20:33.062Z,6.90
2018-07-10T07:23:04.778Z,6.40
2018-07-10T07:25:34.061Z,9.37
2018-07-10T07:28:03.338Z,7.87
2018-07-10T07:30:37.349Z,7.80
2018-07-10T07:33:13.275Z,6.90
2018-07-10T07:35:42.813Z,6.50
2018-07-10T07:38:11.606Z,7.00
2018-07-10T07:40:40.743Z,7.43
2018-07-10T07:43:09.765Z,6.53
2018-07-10T07:45:40.104Z,6.50
2018-07-10T07:48:09.124Z,6.77
2018-07-10T07:50:42.308Z,7.70
2018-07-10T07:53:11.108Z,7.17
2018-07-10T07:55:45.097Z,7.77
2018-07-10T07:58:14.213Z,7.03
2018-07-10T08:00:43.752Z,7.10
2018-07-10T08:03:12.959Z,6.20
2018-07-10T08:05:42.326Z,6.80
2018-07-10T08:08:11.066Z,7.73
2018-07-10T08:10:39.971Z,6.93
2018-07-10T08:13:08.838Z,7.10
2018-07-10T08:15:38.299Z,7.10
2018-07-10T08:18:07.070Z,9.60
2018-07-10T08:20:35.900Z,7.40
2018-07-10T08:23:05.260Z,7.00
2018-07-10T08:25:34.212Z,7.60
2018-07-10T08:28:04.025Z,6.90
2018-07-10T08:30:32.966Z,6.03
2018-07-10T08:33:01.826Z,7.00
2018-07-10T08:35:30.673Z,7.13
2018-07-10T08:37:59.457Z,7.40
2018-07-10T08:40:28.359Z,6.10
2018-07-10T08:42:57.155Z,6.37
2018-07-10T08:45:26.253Z,7.10
2018-07-10T08:47:56.884Z,6.37
2018-07-10T08:50:25.964Z,6.27
2018-07-10T08:52:54.921Z,7.90
2018-07-10T08:55:25.398Z,7.07
2018-07-10T08:57:54.234Z,7.07
2018-07-10T09:00:23.080Z,7.13
2018-07-10T09:02:51.974Z,7.90
2018-07-10T09:05:20.881Z,7.20
2018-07-10T09:07:49.676Z,6.77
2018-07-10T09:10:18.492Z,7.67
2018-07-10T09:12:47.347Z,5.73
2018-07-10T09:15:16.102Z,6.63
2018-07-10T09:17:44.929Z,8.07
2018-07-10T09:20:21.730Z,7.00
2018-07-10T09:22:50.608Z,6.27
2018-07-10T09:25:19.422Z,7.30
2018-07-10T09:27:48.235Z,6.50
2018-07-10T09:30:17.651Z,6.03
2018-07-10T09:32:46.559Z,8.20
2018-07-10T09:35:17.044Z,6.43
2018-07-10T09:37:46.684Z,6.73
2018-07-10T09:40:21.118Z,7.10
2018-07-10T09:42:58.880Z,7.40
2018-07-10T09:45:32.776Z,6.07
2018-07-10T09:48:02.403Z,6.80
2018-07-10T09:50:36.929Z,6.40
2018-07-10T09:53:05.857Z,7.57
2018-07-10T09:55:35.713Z,9.03
2018-07-10T09:58:04.556Z,7.80
2018-07-10T10:00:39.425Z,6.97
2018-07-10T10:03:09.081Z,7.50
2018-07-10T10:05:39.915Z,7.60
2018-07-10T10:08:09.615Z,6.30
2018-07-10T10:10:38.694Z,6.87
2018-07-10T10:13:11.656Z,7.00
2018-07-10T10:15:40.420Z,7.23
2018-07-10T10:18:10.079Z,7.00
2018-07-10T10:20:40.657Z,8.00
2018-07-10T10:23:10.881Z,7.30
2018-07-10T10:25:50.198Z,7.13
2018-07-10T10:28:22.161Z,7.40
2018-07-10T10:30:51.102Z,6.77
2018-07-10T10:33:19.966Z,7.13
2018-07-10T10:35:49.365Z,7.50
2018-07-10T10:38:18.765Z,8.30
2018-07-10T10:40:49.330Z,7.40
2018-07-10T10:43:19.032Z,7.30
2018-07-10T10:45:48.232Z,8.13
2018-07-10T10:48:18.576Z,7.07
2018-07-10T10:50:51.241Z,7.70
2018-07-10T10:53:20.959Z,7.67
2018-07-10T10:55:51.079Z,6.90
2018-07-10T10:58:21.688Z,7.80
2018-07-10T11:00:50.909Z,7.90
2018-07-10T11:03:19.704Z,8.80
2018-07-10T11:05:48.600Z,7.73
2018-07-10T11:08:18.687Z,8.10
2018-07-10T11:10:47.832Z,8.30
2018-07-10T11:13:18.048Z,7.30
2018-07-10T11:15:49.391Z,7.43
2018-07-10T11:18:37.852Z,8.83
2018-07-10T11:21:11.777Z,9.00
2018-07-10T11:23:43.725Z,10.00
2018-07-10T11:26:17.871Z,10.33
2018-07-10T11:28:46.801Z,11.10
2018-07-10T11:31:15.614Z,11.67
2018-07-10T11:33:44.414Z,11.13
2018-07-10T11:36:13.221Z,11.43
2018-07-10T11:38:42.160Z,11.00
2018-07-10T11:41:11.866Z,13.17
2018-07-10T11:43:40.698Z,11.97
2018-07-10T11:46:09.568Z,12.50
2018-07-10T11:48:38.409Z,11.23
2018-07-10T11:51:07.544Z,9.73
2018-07-10T11:53:36.764Z,9.80
2018-07-10T11:56:05.599Z,9.60
2018-07-10T11:58:34.420Z,10.17
2018-07-10T12:01:03.709Z,9.17
2018-07-10T12:03:41.571Z,11.33
2018-07-10T12:06:10.789Z,11.80
2018-07-10T12:08:40.072Z,12.20
2018-07-10T12:11:17.406Z,11.80
2018-07-10T12:13:46.475Z,11.10
2018-07-10T12:16:22.028Z,11.30
2018-07-10T12:18:51.493Z,12.00
2018-07-10T12:21:21.186Z,11.40
2018-07-10T12:23:50.194Z,9.97
2018-07-10T12:26:19.571Z,10.70
2018-07-10T12:28:49.412Z,11.60
2018-07-10T12:31:18.410Z,11.50
2018-07-10T12:33:47.451Z,10.70
2018-07-10T12:36:16.381Z,11.70
2018-07-10T12:38:45.488Z,11.83
2018-07-10T12:41:14.763Z,11.83
2018-07-10T12:43:43.609Z,11.50
2018-07-10T12:46:14.506Z,10.27
2018-07-10T12:48:45.552Z,10.00
2018-07-10T12:51:15.108Z,10.73
2018-07-10T12:53:44.821Z,10.97
2018-07-10T12:56:13.869Z,9.87
2018-07-10T12:58:44.215Z,10.87
2018-07-10T13:01:13.883Z,10.60
2018-07-10T13:03:43.621Z,12.30
2018-07-10T13:06:12.900Z,13.90
2018-07-10T13:08:42.045Z,11.83
2018-07-10T13:11:11.496Z,11.27
2018-07-10T13:13:41.484Z,10.97
2018-07-10T13:16:10.517Z,11.00
2018-07-10T13:18:40.794Z,10.57
2018-07-10T13:21:10.273Z,10.73
2018-07-10T13:23:39.185Z,10.30
2018-07-10T13:26:08.438Z,11.80
2018-07-10T13:28:39.407Z,13.20
2018-07-10T13:31:08.717Z,11.23
2018-07-10T13:33:38.602Z,12.87
2018-07-10T13:36:07.841Z,12.90
2018-07-10T13:38:38.368Z,12.07
2018-07-10T13:41:07.319Z,12.47
2018-07-10T13:43:36.406Z,10.80
2018-07-10T13:46:05.373Z,10.83
2018-07-10T13:48:34.176Z,11.43
2018-07-10T13:51:04.584Z,9.80
2018-07-10T13:53:38.433Z,9.67
2018-07-10T13:56:07.607Z,9.13
2018-07-10T13:58:37.948Z,8.40
2018-07-10T14:01:09.632Z,8.37
2018-07-10T14:03:38.702Z,8.87
2018-07-10T14:06:07.827Z,8.10
2018-07-10T14:08:36.897Z,8.50
2018-07-10T14:11:05.713Z,8.53
2018-07-10T14:13:34.066Z,7.90
2018-07-10T14:16:03.203Z,7.40
2018-07-10T14:18:32.021Z,6.00
2018-07-10T14:21:02.970Z,5.50
2018-07-10T14:23:31.815Z,8.97
2018-07-10T14:26:00.640Z,8.07
2018-07-10T14:28:29.651Z,4.17
2018-07-10T14:30:59.468Z,3.97
2018-07-10T14:33:29.505Z,4.17
2018-07-10T14:35:58.402Z,3.60
2018-07-10T14:38:29.065Z,4.33
2018-07-10T14:41:01.876Z,3.70
2018-07-10T14:43:37.566Z,3.93
2018-07-10T14:46:11.062Z,4.00
2018-07-10T14:48:45.098Z,3.87
2018-07-10T14:51:15.775Z,4.20
2018-07-10T14:53:44.686Z,4.27
2018-07-10T14:56:13.618Z,4.87
2018-07-10T14:58:42.795Z,4.43
2018-07-10T15:01:11.653Z,3.73
2018-07-10T15:03:41.113Z,4.60
2018-07-10T15:06:10.914Z,4.43
2018-07-10T15:08:39.746Z,4.70
2018-07-10T15:11:08.536Z,4.40
2018-07-10T15:13:48.547Z,4.30
2018-07-10T15:16:17.282Z,4.30
2018-07-10T15:18:49.961Z,4.50
2018-07-10T15:21:19.522Z,4.77
2018-07-10T15:23:49.272Z,6.03
2018-07-10T15:26:18.937Z,5.00
2018-07-10T15:28:47.967Z,5.40
2018-07-10T15:31:16.809Z,6.10
2018-07-10T15:33:49.618Z,5.20
2018-07-10T15:36:18.430Z,6.30
2018-07-10T15:38:48.528Z,5.40
2018-07-10T15:41:17.397Z,4.97
2018-07-10T15:43:46.755Z,5.10
2018-07-10T15:46:15.514Z,5.60
2018-07-10T15:48:43.852Z,5.17
2018-07-10T15:51:12.881Z,6.50
2018-07-10T15:53:41.274Z,5.50
2018-07-10T15:56:10.096Z,6.23
2018-07-10T15:58:38.998Z,6.80
2018-07-10T16:01:08.246Z,7.23
2018-07-10T16:03:37.202Z,7.07
2018-07-10T16:06:06.352Z,6.50
2018-07-10T16:08:37.637Z,6.67
2018-07-10T16:11:06.780Z,7.23
2018-07-10T16:13:42.065Z,7.70
2018-07-10T16:16:15.913Z,6.60
2018-07-10T16:18:46.828Z,6.73
2018-07-10T16:21:15.649Z,6.83
2018-07-10T16:23:44.464Z,7.50
2018-07-10T16:26:20.599Z,7.80
2018-07-10T16:28:51.417Z,8.67
2018-07-10T16:31:22.244Z,6.57
2018-07-10T16:33:51.113Z,6.60
2018-07-10T16:36:19.997Z,6.97
2018-07-10T16:38:48.836Z,8.13
2018-07-10T16:41:23.212Z,6.40
2018-07-10T16:43:53.157Z,7.50
2018-07-10T16:46:28.082Z,7.87
2018-07-10T16:49:04.530Z,7.03
2018-07-10T16:51:44.740Z,7.10
2018-07-10T16:54:14.045Z,7.20
2018-07-10T16:56:42.801Z,6.90
2018-07-10T16:59:11.753Z,6.23
2018-07-10T17:01:41.377Z,9.03
2018-07-10T17:04:10.846Z,9.33
2018-07-10T17:06:39.283Z,8.10
2018-07-10T17:09:08.207Z,7.87
2018-07-10T17:11:37.139Z,7.90
2018-07-10T17:14:06.099Z,7.73
2018-07-10T17:16:34.480Z,8.33
2018-07-10T17:19:03.274Z,9.33
2018-07-10T17:21:32.180Z,9.70
2018-07-10T17:24:03.721Z,7.43
2018-07-10T17:26:34.239Z,12.40
2018-07-10T17:29:08.026Z,7.43
2018-07-10T17:31:37.117Z,7.90
2018-07-10T17:34:06.265Z,6.90
2018-07-10T17:36:35.233Z,6.40
2018-07-10T17:39:05.680Z,5.77
2018-07-10T17:41:36.455Z,5.93
2018-07-10T17:44:07.270Z,5.20
2018-07-10T17:46:36.262Z,5.57
2018-07-10T17:49:05.330Z,6.00
2018-07-10T17:51:34.025Z,5.40
2018-07-10T17:54:03.329Z,5.80
2018-07-10T17:56:32.232Z,5.73
2018-07-10T17:59:01.895Z,5.10
2018-07-10T18:01:30.854Z,5.73
2018-07-10T18:03:59.660Z,5.73
2018-07-10T18:06:28.482Z,5.77
2018-07-10T18:08:57.241Z,6.27
2018-07-10T18:11:26.587Z,6.10
2018-07-10T18:13:54.945Z,5.93
2018-07-10T18:16:28.659Z,6.90
2018-07-10T18:18:57.530Z,7.10
2018-07-10T18:21:27.291Z,6.47
2018-07-10T18:23:56.882Z,6.43
2018-07-10T18:26:25.753Z,6.70
2018-07-10T18:28:56.850Z,6.47
2018-07-10T18:31:28.311Z,7.60
2018-07-10T18:33:57.159Z,7.10
2018-07-10T18:36:26.076Z,6.80
2018-07-10T18:38:57.688Z,7.87
2018-07-10T18:41:26.470Z,7.10
2018-07-10T18:43:55.272Z,8.73
2018-07-10T18:46:24.091Z,8.30
2018-07-10T18:48:53.320Z,9.00
2018-07-10T18:51:22.363Z,8.50
2018-07-10T18:53:51.177Z,9.07
2018-07-10T18:56:20.524Z,10.30
2018-07-10T18:58:58.295Z,10.03
2018-07-10T19:02:00.587Z,10.40
2018-07-10T19:04:38.804Z,9.33
2018-07-10T19:07:07.712Z,10.00
2018-07-10T19:09:37.509Z,9.60
2018-07-10T19:12:09.296Z,10.17
2018-07-10T19:14:38.763Z,11.00
2018-07-10T19:17:14.762Z,11.33
2018-07-10T19:19:51.137Z,9.90
2018-07-10T19:22:23.072Z,10.07
2018-07-10T19:24:51.920Z,8.37
2018-07-10T19:27:26.388Z,8.73
2018-07-10T19:29:56.724Z,9.00
2018-07-10T19:32:25.869Z,8.50
2018-07-10T19:35:01.621Z,8.23
2018-07-10T19:37:32.885Z,8.60
2018-07-10T19:40:01.671Z,8.60
2018-07-10T19:42:32.221Z,7.77
2018-07-10T19:45:02.058Z,8.60
2018-07-10T19:47:31.445Z,7.80
2018-07-10T19:50:09.544Z,8.27
2018-07-10T19:52:38.497Z,7.50
2018-07-10T19:55:07.393Z,8.43
2018-07-10T19:58:16.839Z,8.00
2018-07-10T20:00:51.414Z,8.80
2018-07-10T20:03:47.164Z,8.07
2018-07-10T20:06:25.886Z,8.30
2018-07-10T20:08:58.281Z,8.17
2018-07-10T20:11:33.191Z,6.97
2018-07-10T20:14:02.100Z,7.40
2018-07-10T20:16:51.702Z,7.03
2018-07-10T20:20:24.317Z,7.23
2018-07-10T20:23:24.692Z,8.17
2018-07-10T20:26:28.741Z,8.30
2018-07-10T20:29:10.572Z,8.80
2018-07-10T20:31:47.161Z,7.80
2018-07-10T20:34:39.733Z,7.80
2018-07-10T20:37:16.069Z,7.87
2018-07-10T20:39:44.929Z,7.37
2018-07-10T20:42:13.784Z,7.07
2018-07-10T20:44:50.738Z,8.67
2018-07-10T20:47:20.396Z,8.40
2018-07-10T20:49:56.697Z,8.00
2018-07-10T20:52:31.600Z,7.07
2018-07-10T20:55:04.931Z,7.10
2018-07-10T20:57:41.082Z,7.17
2018-07-10T21:00:11.736Z,7.00
2018-07-10T21:03:18.981Z,7.07
2018-07-10T21:05:50.690Z,7.47
2018-07-10T21:08:31.646Z,7.60
2018-07-10T21:11:05.746Z,7.60
2018-07-10T21:13:54.531Z,7.83
2018-07-10T21:16:36.384Z,7.00
2018-07-10T21:20:30.066Z,7.17
2018-07-10T21:25:10.044Z,7.17
2018-07-10T21:28:45.536Z,6.20
2018-07-10T21:32:26.053Z,6.40
2018-07-10T21:34:55.058Z,6.87
2018-07-10T21:37:35.345Z,9.80
2018-07-10T21:41:23.116Z,7.47
2018-07-10T21:44:30.982Z,8.00
2018-07-10T21:47:04.510Z,7.57
2018-07-10T21:49:48.526Z,8.20
2018-07-10T21:52:18.113Z,8.43
2018-07-10T21:54:47.841Z,8.13
2018-07-10T21:57:18.083Z,8.40
2018-07-10T21:59:54.443Z,9.13
2018-07-10T22:02:23.793Z,8.03
2018-07-10T22:04:54.529Z,7.93
2018-07-10T22:07:26.301Z,9.20
2018-07-10T22:10:00.089Z,8.60
2018-07-10T22:12:29.109Z,8.20
2018-07-10T22:14:59.092Z,9.57
2018-07-10T22:17:29.417Z,9.20
2018-07-10T22:20:02.658Z,8.50
2018-07-10T22:22:32.990Z,9.17
2018-07-10T22:25:06.205Z,8.43
2018-07-10T22:27:37.888Z,8.60
2018-07-10T22:30:11.946Z,8.07
2018-07-10T22:32:46.793Z,10.20
2018-07-10T22:35:16.436Z,10.93
2018-07-10T22:37:45.297Z,11.50
2018-07-10T22:40:14.658Z,11.67
2018-07-10T22:42:43.512Z,11.63
2018-07-10T22:45:13.414Z,10.10
2018-07-10T22:47:43.077Z,11.60
2018-07-10T22:50:15.921Z,11.60
2018-07-10T22:52:51.207Z,12.60
2018-07-10T22:55:21.924Z,11.93
2018-07-10T22:57:52.532Z,13.37
2018-07-10T23:00:33.629Z,12.50
2018-07-10T23:03:12.469Z,13.40
2018-07-10T23:05:41.298Z,12.03
2018-07-10T23:08:10.169Z,12.97
2018-07-10T23:10:39.110Z,12.40
2018-07-10T23:13:07.976Z,11.70
2018-07-10T23:15:36.905Z,11.30
2018-07-10T23:18:06.243Z,12.50
2018-07-10T23:20:35.343Z,11.53
2018-07-10T23:23:04.254Z,11.63
2018-07-10T23:25:33.500Z,11.40
2018-07-10T23:28:04.415Z,11.90
2018-07-10T23:30:38.859Z,10.60
2018-07-10T23:33:10.862Z,11.37
2018-07-10T23:35:41.633Z,11.03
2018-07-10T23:39:16.892Z,10.60
2018-07-10T23:41:53.245Z,10.70
2018-07-10T23:44:25.536Z,11.00
2018-07-10T23:46:58.582Z,10.50
2018-07-10T23:49:30.406Z,10.80
2018-07-10T23:52:10.390Z,10.40
2018-07-10T23:54:39.425Z,10.60
2018-07-10T23:57:08.542Z,10.07
2018-07-10T23:59:38.957Z,10.47
